createdAt,value
2019-02-07T00:02:10.648Z,28.00
2019-02-07T00:07:06.513Z,25.53
2019-02-07T00:12:02.385Z,28.50
2019-02-07T00:16:58.182Z,29.20
2019-02-07T00:21:53.859Z,29.53
2019-02-07T00:26:54.518Z,31.60
2019-02-07T00:31:50.204Z,26.97
2019-02-07T00:36:46.049Z,26.17
2019-02-07T00:41:41.844Z,27.97
2019-02-07T00:46:37.587Z,23.00
2019-02-07T00:51:33.387Z,25.30
2019-02-07T00:56:29.123Z,27.63
2019-02-07T01:01:24.803Z,29.73
2019-02-07T01:06:20.708Z,23.87
2019-02-07T01:11:16.495Z,26.47
2019-02-07T01:16:12.670Z,21.47
2019-02-07T01:21:08.589Z,25.23
2019-02-07T01:26:06.066Z,27.73
2019-02-07T01:31:01.800Z,27.07
2019-02-07T01:35:58.825Z,24.17
2019-02-07T01:40:54.674Z,24.77
2019-02-07T01:45:51.690Z,24.80
2019-02-07T01:50:47.507Z,28.33
2019-02-07T01:55:43.293Z,28.43
2019-02-07T02:00:39.124Z,26.70
2019-02-07T02:05:35.094Z,24.30
2019-02-07T02:10:31.292Z,25.70
2019-02-07T02:15:27.395Z,25.23
2019-02-07T02:20:24.495Z,20.07
2019-02-07T02:25:20.892Z,22.53
2019-02-07T02:30:19.133Z,28.37
2019-02-07T02:35:15.757Z,24.33
2019-02-07T02:40:11.749Z,20.37
2019-02-07T02:45:10.491Z,22.30
2019-02-07T02:50:07.985Z,22.27
2019-02-07T02:55:04.167Z,21.63
2019-02-07T02:59:59.961Z,22.40
2019-02-07T03:05:03.227Z,22.80
2019-02-07T03:10:18.509Z,22.90
2019-02-07T03:15:49.723Z,23.13
2019-02-07T03:20:54.593Z,23.70
2019-02-07T03:26:09.438Z,21.13
2019-02-07T03:31:32.322Z,24.00
2019-02-07T03:36:44.015Z,23.57
2019-02-07T03:42:03.519Z,23.83
2019-02-07T03:47:27.416Z,22.87
2019-02-07T03:52:57.759Z,27.33
2019-02-07T03:58:21.086Z,24.97
2019-02-07T04:03:33.515Z,27.70
2019-02-07T04:08:48.446Z,24.87
2019-02-07T04:13:58.375Z,23.43
2019-02-07T04:19:26.515Z,23.80
2019-02-07T04:24:45.736Z,22.77
2019-02-07T04:30:06.169Z,20.07
2019-02-07T04:35:21.095Z,19.47
2019-02-07T04:40:54.031Z,26.70
2019-02-07T04:45:58.772Z,22.67
2019-02-07T04:51:04.742Z,21.87
2019-02-07T04:56:17.931Z,27.27
2019-02-07T05:01:41.924Z,20.83
2019-02-07T05:06:45.655Z,18.83
2019-02-07T05:11:55.063Z,20.97
2019-02-07T05:17:17.488Z,24.23
2019-02-07T05:22:49.107Z,17.47
2019-02-07T05:28:16.110Z,20.53
2019-02-07T05:33:30.972Z,26.93
2019-02-07T05:38:44.193Z,21.90
2019-02-07T05:44:04.852Z,22.27
2019-02-07T05:49:13.889Z,29.07
2019-02-07T05:54:27.834Z,23.13
2019-02-07T05:59:45.635Z,22.57
2019-02-07T06:05:06.158Z,23.87
2019-02-07T06:10:27.056Z,18.47
2019-02-07T06:15:50.112Z,53.40
2019-02-07T06:21:07.894Z,34.77
2019-02-07T06:26:28.412Z,29.30
2019-02-07T06:31:46.152Z,20.57
2019-02-07T06:36:57.604Z,26.20
2019-02-07T06:42:18.210Z,22.33
2019-02-07T06:47:33.758Z,20.23
2019-02-07T06:53:00.398Z,28.13
2019-02-07T06:58:22.815Z,22.87
2019-02-07T07:03:40.439Z,21.93
2019-02-07T07:09:10.195Z,33.17
2019-02-07T07:14:27.598Z,35.00
2019-02-07T07:19:47.547Z,30.60
2019-02-07T07:25:05.851Z,26.10
2019-02-07T07:30:19.298Z,28.20
2019-02-07T07:35:40.009Z,35.93
2019-02-07T07:41:03.623Z,29.90
2019-02-07T07:46:36.686Z,25.23
2019-02-07T07:51:50.137Z,31.27
2019-02-07T07:57:13.759Z,30.37
2019-02-07T08:02:40.452Z,25.63
2019-02-07T08:07:57.874Z,21.00
2019-02-07T08:13:15.827Z,26.83
2019-02-07T08:18:33.480Z,28.03
2019-02-07T08:23:47.212Z,27.60
2019-02-07T08:29:05.026Z,30.57
2019-02-07T08:34:22.664Z,23.77
2019-02-07T08:39:45.368Z,30.97
2019-02-07T08:45:06.181Z,25.87
2019-02-07T08:50:19.800Z,27.13
2019-02-07T08:55:35.010Z,24.83
2019-02-07T09:00:50.082Z,27.40
2019-02-07T09:06:19.302Z,20.83
2019-02-07T09:12:19.235Z,31.37
2019-02-07T09:18:11.416Z,45.00
2019-02-07T09:23:54.003Z,26.03
2019-02-07T09:29:05.857Z,16.07
2019-02-07T09:34:29.212Z,23.80
2019-02-07T09:39:42.657Z,23.77
2019-02-07T09:45:01.980Z,16.43
2019-02-07T09:50:28.238Z,18.67
2019-02-07T09:55:44.109Z,15.30
2019-02-07T10:00:50.471Z,12.40
2019-02-07T10:06:06.043Z,14.03
2019-02-07T10:11:40.436Z,12.37
2019-02-07T10:17:07.374Z,14.13
2019-02-07T10:22:12.659Z,8.13
2019-02-07T10:27:26.583Z,9.37
2019-02-07T10:32:44.443Z,14.60
2019-02-07T10:37:59.601Z,10.80
2019-02-07T10:43:13.179Z,8.20
2019-02-07T10:48:44.224Z,9.80
2019-02-07T10:54:05.220Z,14.23
2019-02-07T10:59:11.341Z,9.70
2019-02-07T11:04:26.442Z,8.77
2019-02-07T11:09:52.301Z,9.57
2019-02-07T11:15:16.070Z,9.20
2019-02-07T11:20:30.150Z,10.73
2019-02-07T11:25:48.241Z,12.53
2019-02-07T11:31:08.865Z,9.53
2019-02-07T11:36:34.443Z,8.60
2019-02-07T11:41:49.128Z,8.97
2019-02-07T11:47:07.556Z,10.90
2019-02-07T11:52:35.240Z,7.03
2019-02-07T11:57:50.004Z,11.23
2019-02-07T12:03:04.804Z,10.93
2019-02-07T12:08:16.105Z,9.13
2019-02-07T12:13:22.820Z,11.07
2019-02-07T12:18:31.371Z,12.27
2019-02-07T12:23:44.814Z,9.00
2019-02-07T12:29:01.432Z,11.50
2019-02-07T12:34:03.316Z,12.03
2019-02-07T12:39:21.104Z,14.90
2019-02-07T12:44:31.670Z,12.97
2019-02-07T12:49:52.813Z,14.00
2019-02-07T12:54:57.150Z,11.57
2019-02-07T13:00:15.649Z,11.03
2019-02-07T13:05:32.070Z,13.63
2019-02-07T13:10:51.367Z,15.90
2019-02-07T13:16:09.875Z,15.27
2019-02-07T13:21:21.824Z,17.37
2019-02-07T13:26:36.537Z,18.13
2019-02-07T13:31:49.968Z,14.30
2019-02-07T13:37:17.053Z,15.40
2019-02-07T13:42:37.589Z,22.27
2019-02-07T13:47:52.222Z,19.00
2019-02-07T13:53:05.079Z,16.13
2019-02-07T13:58:19.536Z,15.90
2019-02-07T14:03:33.382Z,16.80
2019-02-07T14:08:51.501Z,18.40
2019-02-07T14:14:12.357Z,19.33
2019-02-07T14:19:40.810Z,19.23
2019-02-07T14:25:00.179Z,17.20
2019-02-07T14:30:12.752Z,19.00
2019-02-07T14:35:36.044Z,17.20
2019-02-07T14:41:02.717Z,18.77
2019-02-07T14:46:46.554Z,19.37
2019-02-07T14:51:49.557Z,16.90
2019-02-07T14:56:46.877Z,17.37
2019-02-07T15:01:45.455Z,21.23
2019-02-07T15:06:46.956Z,25.77
2019-02-07T15:11:48.704Z,28.73
2019-02-07T15:16:49.438Z,28.27
2019-02-07T15:21:43.590Z,26.00
2019-02-07T15:26:41.472Z,29.83
2019-02-07T15:31:37.793Z,33.00
2019-02-07T15:36:34.957Z,27.37
2019-02-07T15:41:34.417Z,25.47
2019-02-07T15:46:31.655Z,28.90
2019-02-07T15:51:29.052Z,26.80
2019-02-07T15:56:25.421Z,27.97
2019-02-07T16:01:59.221Z,27.47
2019-02-07T16:06:55.888Z,22.43
2019-02-07T16:11:52.910Z,25.30
2019-02-07T16:16:49.342Z,24.27
2019-02-07T16:21:46.112Z,36.23
2019-02-07T16:26:42.971Z,70.73
2019-02-07T16:31:39.958Z,50.93
2019-02-07T16:36:36.497Z,49.27
2019-02-07T16:41:33.385Z,50.43
2019-02-07T16:46:33.627Z,36.70
2019-02-07T16:51:30.769Z,44.27
2019-02-07T16:56:26.881Z,31.57
2019-02-07T17:01:24.516Z,32.70
2019-02-07T17:06:22.930Z,34.27
2019-02-07T17:11:20.306Z,26.17
2019-02-07T17:16:18.567Z,32.10
2019-02-07T17:21:16.604Z,33.60
2019-02-07T17:26:12.853Z,32.37
2019-02-07T17:31:08.988Z,29.67
2019-02-07T17:36:05.022Z,27.40
2019-02-07T17:41:02.184Z,35.63
2019-02-07T17:45:58.127Z,32.07
2019-02-07T17:50:54.775Z,41.97
2019-02-07T17:55:50.684Z,35.67
2019-02-07T18:01:03.752Z,42.23
2019-02-07T18:05:59.677Z,41.87
2019-02-07T18:10:55.922Z,46.67
2019-02-07T18:15:51.881Z,53.57
2019-02-07T18:20:47.779Z,73.80
2019-02-07T18:25:43.965Z,42.77
2019-02-07T18:30:39.827Z,39.60
2019-02-07T18:35:35.692Z,47.30
2019-02-07T18:40:33.242Z,48.00
2019-02-07T18:45:29.792Z,49.63
2019-02-07T18:50:31.213Z,56.50
2019-02-07T18:55:27.245Z,42.97
2019-02-07T19:00:25.796Z,36.50
2019-02-07T19:05:23.277Z,48.17
2019-02-07T19:10:21.014Z,39.30
2019-02-07T19:15:19.840Z,42.33
2019-02-07T19:20:17.497Z,41.53
2019-02-07T19:25:14.496Z,47.97
2019-02-07T19:30:23.067Z,46.67
2019-02-07T19:35:19.043Z,44.10
2019-02-07T19:40:15.005Z,46.30
2019-02-07T19:45:12.058Z,48.60
2019-02-07T19:50:10.559Z,51.63
2019-02-07T19:55:08.411Z,43.50
2019-02-07T20:00:06.889Z,42.17
2019-02-07T20:05:02.833Z,50.47
2019-02-07T20:09:58.696Z,44.57
2019-02-07T20:14:56.683Z,44.47
2019-02-07T20:19:54.268Z,46.33
2019-02-07T20:24:50.091Z,44.67
2019-02-07T20:29:45.864Z,46.03
2019-02-07T20:34:41.859Z,46.77
2019-02-07T20:39:39.335Z,41.93
2019-02-07T20:44:36.290Z,46.57
2019-02-07T20:49:35.401Z,83.83
2019-02-07T20:54:32.262Z,64.63
2019-02-07T20:59:28.888Z,58.77
2019-02-07T21:04:26.734Z,80.57
2019-02-07T21:09:22.601Z,85.27
2019-02-07T21:14:20.262Z,83.50
2019-02-07T21:19:16.289Z,95.07
2019-02-07T21:24:12.120Z,90.33
2019-02-07T21:29:08.092Z,78.80
2019-02-07T21:34:04.389Z,84.37
2019-02-07T21:39:02.565Z,79.23
2019-02-07T21:43:59.921Z,61.37
2019-02-07T21:48:58.109Z,55.57
2019-02-07T21:53:54.925Z,62.77
2019-02-07T21:58:50.921Z,60.10
2019-02-07T22:03:46.637Z,63.97
2019-02-07T22:08:42.747Z,65.40
2019-02-07T22:13:39.801Z,53.30
2019-02-07T22:18:35.557Z,44.50
2019-02-07T22:23:31.373Z,49.63
2019-02-07T22:28:27.565Z,47.53
2019-02-07T22:33:23.608Z,53.50
2019-02-07T22:38:19.308Z,48.20
2019-02-07T22:43:25.283Z,46.27
2019-02-07T22:48:21.088Z,45.20
2019-02-07T22:53:17.432Z,40.07
2019-02-07T22:58:13.716Z,38.53
2019-02-07T23:03:09.923Z,44.50
2019-02-07T23:08:06.076Z,39.77
2019-02-07T23:13:01.950Z,41.17
2019-02-07T23:17:57.719Z,44.63
2019-02-07T23:22:53.781Z,44.63
2019-02-07T23:27:49.555Z,42.93
2019-02-07T23:32:45.698Z,43.47
2019-02-07T23:37:41.556Z,40.33
2019-02-07T23:42:37.355Z,47.20
2019-02-07T23:47:34.090Z,38.30
2019-02-07T23:52:29.848Z,39.90
2019-02-07T23:57:25.650Z,50.23
